sensor_id;sensor_type;location;lat;lon;timestamp;P1;durP1;ratioP1;P2;durP2;ratioP2
20711;SDS011;10517;50.742;4.224;2023-12-07T00:01:18;12.67;;;3.80;;
20711;SDS011;10517;50.742;4.224;2023-12-07T00:03:44;9.03;;;3.27;;
20711;SDS011;10517;50.742;4.224;2023-12-07T00:06:09;6.53;;;3.30;;
20711;SDS011;10517;50.742;4.224;2023-12-07T00:08:35;11.67;;;3.63;;
20711;SDS011;10517;50.742;4.224;2023-12-07T00:11:01;13.80;;;3.83;;
20711;SDS011;10517;50.742;4.224;2023-12-07T00:13:26;9.87;;;4.93;;
20711;SDS011;10517;50.742;4.224;2023-12-07T00:15:52;8.60;;;3.50;;
20711;SDS011;10517;50.742;4.224;2023-12-07T00:18:18;7.37;;;2.80;;
20711;SDS011;10517;50.742;4.224;2023-12-07T00:20:44;14.03;;;4.47;;
20711;SDS011;10517;50.742;4.224;2023-12-07T00:23:10;8.03;;;3.97;;
20711;SDS011;10517;50.742;4.224;2023-12-07T00:25:35;6.90;;;3.00;;
20711;SDS011;10517;50.742;4.224;2023-12-07T00:28:01;8.47;;;3.00;;
20711;SDS011;10517;50.742;4.224;2023-12-07T00:30:28;10.43;;;4.13;;
20711;SDS011;10517;50.742;4.224;2023-12-07T00:32:53;12.10;;;3.87;;
20711;SDS011;10517;50.742;4.224;2023-12-07T00:35:19;10.30;;;3.20;;
20711;SDS011;10517;50.742;4.224;2023-12-07T00:37:47;10.10;;;4.00;;
20711;SDS011;10517;50.742;4.224;2023-12-07T00:40:13;12.23;;;4.27;;
20711;SDS011;10517;50.742;4.224;2023-12-07T00:42:39;8.93;;;2.93;;
20711;SDS011;10517;50.742;4.224;2023-12-07T00:45:05;11.80;;;3.27;;
20711;SDS011;10517;50.742;4.224;2023-12-07T00:47:30;10.10;;;3.83;;
20711;SDS011;10517;50.742;4.224;2023-12-07T00:49:56;6.40;;;2.37;;
20711;SDS011;10517;50.742;4.224;2023-12-07T00:52:22;12.07;;;3.03;;
20711;SDS011;10517;50.742;4.224;2023-12-07T00:54:47;10.23;;;3.47;;
20711;SDS011;10517;50.742;4.224;2023-12-07T00:57:13;12.33;;;3.83;;
20711;SDS011;10517;50.742;4.224;2023-12-07T00:59:38;4.40;;;2.77;;
20711;SDS011;10517;50.742;4.224;2023-12-07T01:02:04;19.10;;;2.27;;
20711;SDS011;10517;50.742;4.224;2023-12-07T01:04:30;6.07;;;2.53;;
20711;SDS011;10517;50.742;4.224;2023-12-07T01:06:57;6.77;;;3.17;;
20711;SDS011;10517;50.742;4.224;2023-12-07T01:09:23;5.47;;;2.93;;
20711;SDS011;10517;50.742;4.224;2023-12-07T01:11:49;6.37;;;3.43;;
20711;SDS011;10517;50.742;4.224;2023-12-07T01:14:14;13.07;;;4.20;;
20711;SDS011;10517;50.742;4.224;2023-12-07T01:16:41;9.93;;;4.67;;
20711;SDS011;10517;50.742;4.224;2023-12-07T01:19:07;6.63;;;3.40;;
20711;SDS011;10517;50.742;4.224;2023-12-07T01:21:33;7.30;;;3.30;;
20711;SDS011;10517;50.742;4.224;2023-12-07T01:23:58;5.37;;;2.27;;
20711;SDS011;10517;50.742;4.224;2023-12-07T01:26:24;6.93;;;2.73;;
20711;SDS011;10517;50.742;4.224;2023-12-07T01:28:50;5.90;;;2.17;;
20711;SDS011;10517;50.742;4.224;2023-12-07T01:31:16;8.47;;;2.33;;
20711;SDS011;10517;50.742;4.224;2023-12-07T01:33:42;3.20;;;1.70;;
20711;SDS011;10517;50.742;4.224;2023-12-07T01:36:08;3.83;;;1.67;;
20711;SDS011;10517;50.742;4.224;2023-12-07T01:38:34;3.33;;;1.93;;
20711;SDS011;10517;50.742;4.224;2023-12-07T01:40:59;12.27;;;2.37;;
20711;SDS011;10517;50.742;4.224;2023-12-07T01:43:25;7.13;;;3.00;;
20711;SDS011;10517;50.742;4.224;2023-12-07T01:45:51;10.03;;;4.13;;
20711;SDS011;10517;50.742;4.224;2023-12-07T01:48:21;4.93;;;3.13;;
20711;SDS011;10517;50.742;4.224;2023-12-07T01:50:49;4.03;;;1.70;;
20711;SDS011;10517;50.742;4.224;2023-12-07T01:53:16;4.30;;;2.00;;
20711;SDS011;10517;50.742;4.224;2023-12-07T01:55:42;5.83;;;2.40;;
20711;SDS011;10517;50.742;4.224;2023-12-07T01:58:07;9.40;;;2.63;;
20711;SDS011;10517;50.742;4.224;2023-12-07T02:00:34;4.90;;;2.60;;
20711;SDS011;10517;50.742;4.224;2023-12-07T02:03:00;11.77;;;2.50;;
20711;SDS011;10517;50.742;4.224;2023-12-07T02:05:29;4.33;;;2.50;;
20711;SDS011;10517;50.742;4.224;2023-12-07T02:07:55;7.63;;;2.67;;
20711;SDS011;10517;50.742;4.224;2023-12-07T02:10:21;11.63;;;3.73;;
20711;SDS011;10517;50.742;4.224;2023-12-07T02:12:47;10.53;;;3.77;;
20711;SDS011;10517;50.742;4.224;2023-12-07T02:15:13;6.30;;;3.33;;
20711;SDS011;10517;50.742;4.224;2023-12-07T02:17:49;6.60;;;3.37;;
20711;SDS011;10517;50.742;4.224;2023-12-07T02:20:23;9.03;;;2.33;;
20711;SDS011;10517;50.742;4.224;2023-12-07T02:22:54;4.10;;;1.77;;
20711;SDS011;10517;50.742;4.224;2023-12-07T02:25:26;5.77;;;2.67;;
20711;SDS011;10517;50.742;4.224;2023-12-07T02:28:24;10.30;;;4.40;;
20711;SDS011;10517;50.742;4.224;2023-12-07T02:30:50;10.67;;;2.50;;
20711;SDS011;10517;50.742;4.224;2023-12-07T02:33:15;5.33;;;2.67;;
20711;SDS011;10517;50.742;4.224;2023-12-07T02:35:41;7.10;;;2.90;;
20711;SDS011;10517;50.742;4.224;2023-12-07T02:38:07;12.73;;;2.07;;
20711;SDS011;10517;50.742;4.224;2023-12-07T02:40:34;5.97;;;3.10;;
20711;SDS011;10517;50.742;4.224;2023-12-07T02:43:00;5.73;;;2.10;;
20711;SDS011;10517;50.742;4.224;2023-12-07T02:45:28;4.90;;;2.63;;
20711;SDS011;10517;50.742;4.224;2023-12-07T02:47:54;6.37;;;2.80;;
20711;SDS011;10517;50.742;4.224;2023-12-07T02:50:19;9.30;;;3.80;;
20711;SDS011;10517;50.742;4.224;2023-12-07T02:52:45;6.57;;;2.80;;
20711;SDS011;10517;50.742;4.224;2023-12-07T02:55:11;4.50;;;2.97;;
20711;SDS011;10517;50.742;4.224;2023-12-07T02:57:36;4.50;;;1.77;;
20711;SDS011;10517;50.742;4.224;2023-12-07T03:00:03;3.73;;;1.97;;
20711;SDS011;10517;50.742;4.224;2023-12-07T03:02:35;8.93;;;3.20;;
20711;SDS011;10517;50.742;4.224;2023-12-07T03:05:02;4.27;;;2.63;;
20711;SDS011;10517;50.742;4.224;2023-12-07T03:07:29;5.33;;;2.50;;
20711;SDS011;10517;50.742;4.224;2023-12-07T03:09:55;9.20;;;3.30;;
20711;SDS011;10517;50.742;4.224;2023-12-07T03:12:20;4.27;;;2.03;;
20711;SDS011;10517;50.742;4.224;2023-12-07T03:14:46;9.87;;;2.57;;
20711;SDS011;10517;50.742;4.224;2023-12-07T03:17:12;4.50;;;2.53;;
20711;SDS011;10517;50.742;4.224;2023-12-07T03:19:38;5.67;;;3.40;;
20711;SDS011;10517;50.742;4.224;2023-12-07T03:22:04;5.20;;;2.40;;
20711;SDS011;10517;50.742;4.224;2023-12-07T03:24:32;10.53;;;3.63;;
20711;SDS011;10517;50.742;4.224;2023-12-07T03:26:58;4.33;;;2.33;;
20711;SDS011;10517;50.742;4.224;2023-12-07T03:29:23;6.30;;;2.83;;
20711;SDS011;10517;50.742;4.224;2023-12-07T03:31:49;6.00;;;2.17;;
20711;SDS011;10517;50.742;4.224;2023-12-07T03:34:14;7.20;;;2.00;;
20711;SDS011;10517;50.742;4.224;2023-12-07T03:36:41;5.33;;;3.47;;
20711;SDS011;10517;50.742;4.224;2023-12-07T03:39:10;2.97;;;1.73;;
20711;SDS011;10517;50.742;4.224;2023-12-07T03:41:35;7.10;;;1.97;;
20711;SDS011;10517;50.742;4.224;2023-12-07T03:44:01;5.73;;;2.47;;
20711;SDS011;10517;50.742;4.224;2023-12-07T03:46:26;4.03;;;1.80;;
20711;SDS011;10517;50.742;4.224;2023-12-07T03:48:52;5.53;;;2.20;;
20711;SDS011;10517;50.742;4.224;2023-12-07T03:51:18;4.47;;;2.53;;
20711;SDS011;10517;50.742;4.224;2023-12-07T03:53:43;5.97;;;2.43;;
20711;SDS011;10517;50.742;4.224;2023-12-07T03:56:09;5.63;;;2.73;;
20711;SDS011;10517;50.742;4.224;2023-12-07T03:58:35;4.77;;;1.97;;
20711;SDS011;10517;50.742;4.224;2023-12-07T04:01:01;3.80;;;2.30;;
20711;SDS011;10517;50.742;4.224;2023-12-07T04:03:26;6.73;;;2.23;;
20711;SDS011;10517;50.742;4.224;2023-12-07T04:05:52;5.00;;;2.93;;
20711;SDS011;10517;50.742;4.224;2023-12-07T04:08:17;5.33;;;1.77;;
20711;SDS011;10517;50.742;4.224;2023-12-07T04:10:43;3.27;;;2.70;;
20711;SDS011;10517;50.742;4.224;2023-12-07T04:13:09;4.87;;;2.17;;
20711;SDS011;10517;50.742;4.224;2023-12-07T04:15:34;8.67;;;3.23;;
20711;SDS011;10517;50.742;4.224;2023-12-07T04:18:00;5.70;;;2.20;;
20711;SDS011;10517;50.742;4.224;2023-12-07T04:20:26;4.87;;;2.10;;
20711;SDS011;10517;50.742;4.224;2023-12-07T04:22:51;5.50;;;2.80;;
20711;SDS011;10517;50.742;4.224;2023-12-07T04:25:17;7.67;;;2.47;;
20711;SDS011;10517;50.742;4.224;2023-12-07T04:27:43;5.50;;;2.73;;
20711;SDS011;10517;50.742;4.224;2023-12-07T04:30:09;4.27;;;2.10;;
20711;SDS011;10517;50.742;4.224;2023-12-07T04:32:35;3.77;;;1.93;;
20711;SDS011;10517;50.742;4.224;2023-12-07T04:35:00;3.53;;;2.00;;
20711;SDS011;10517;50.742;4.224;2023-12-07T04:37:26;4.23;;;2.63;;
20711;SDS011;10517;50.742;4.224;2023-12-07T04:39:52;6.20;;;3.30;;
20711;SDS011;10517;50.742;4.224;2023-12-07T04:42:17;4.00;;;2.07;;
20711;SDS011;10517;50.742;4.224;2023-12-07T04:44:43;9.37;;;2.73;;
20711;SDS011;10517;50.742;4.224;2023-12-07T04:47:08;5.27;;;2.83;;
20711;SDS011;10517;50.742;4.224;2023-12-07T04:49:34;11.63;;;2.87;;
20711;SDS011;10517;50.742;4.224;2023-12-07T04:52:00;5.80;;;3.50;;
20711;SDS011;10517;50.742;4.224;2023-12-07T04:54:25;9.50;;;2.67;;
20711;SDS011;10517;50.742;4.224;2023-12-07T04:56:52;5.30;;;2.50;;
20711;SDS011;10517;50.742;4.224;2023-12-07T04:59:18;5.23;;;2.40;;
20711;SDS011;10517;50.742;4.224;2023-12-07T05:01:44;9.67;;;3.10;;
20711;SDS011;10517;50.742;4.224;2023-12-07T05:04:10;4.23;;;2.53;;
20711;SDS011;10517;50.742;4.224;2023-12-07T05:06:35;5.83;;;2.70;;
20711;SDS011;10517;50.742;4.224;2023-12-07T05:09:01;3.80;;;1.57;;
20711;SDS011;10517;50.742;4.224;2023-12-07T05:11:27;2.60;;;1.90;;
20711;SDS011;10517;50.742;4.224;2023-12-07T05:13:53;9.07;;;2.10;;
20711;SDS011;10517;50.742;4.224;2023-12-07T05:16:18;7.87;;;2.17;;
20711;SDS011;10517;50.742;4.224;2023-12-07T05:18:44;4.53;;;2.47;;
20711;SDS011;10517;50.742;4.224;2023-12-07T05:21:10;9.53;;;2.80;;
20711;SDS011;10517;50.742;4.224;2023-12-07T05:23:36;5.50;;;2.67;;
20711;SDS011;10517;50.742;4.224;2023-12-07T05:26:02;8.70;;;3.10;;
20711;SDS011;10517;50.742;4.224;2023-12-07T05:28:28;6.30;;;2.30;;
20711;SDS011;10517;50.742;4.224;2023-12-07T05:30:53;3.00;;;1.53;;
20711;SDS011;10517;50.742;4.224;2023-12-07T05:33:19;5.23;;;2.37;;
20711;SDS011;10517;50.742;4.224;2023-12-07T05:35:45;6.83;;;3.53;;
20711;SDS011;10517;50.742;4.224;2023-12-07T05:38:10;4.60;;;2.60;;
20711;SDS011;10517;50.742;4.224;2023-12-07T05:40:36;4.03;;;2.17;;
20711;SDS011;10517;50.742;4.224;2023-12-07T05:43:02;3.97;;;2.73;;
20711;SDS011;10517;50.742;4.224;2023-12-07T05:45:28;7.10;;;1.90;;
20711;SDS011;10517;50.742;4.224;2023-12-07T05:47:54;6.00;;;2.70;;
20711;SDS011;10517;50.742;4.224;2023-12-07T05:50:20;5.43;;;3.30;;
20711;SDS011;10517;50.742;4.224;2023-12-07T05:52:45;7.50;;;2.73;;
20711;SDS011;10517;50.742;4.224;2023-12-07T05:55:11;7.13;;;2.47;;
20711;SDS011;10517;50.742;4.224;2023-12-07T05:57:37;5.03;;;3.07;;
20711;SDS011;10517;50.742;4.224;2023-12-07T06:00:03;5.83;;;1.67;;
20711;SDS011;10517;50.742;4.224;2023-12-07T06:02:32;5.53;;;2.47;;
20711;SDS011;10517;50.742;4.224;2023-12-07T06:04:58;3.77;;;2.30;;
20711;SDS011;10517;50.742;4.224;2023-12-07T06:07:23;3.87;;;2.03;;
20711;SDS011;10517;50.742;4.224;2023-12-07T06:09:49;4.20;;;2.23;;
20711;SDS011;10517;50.742;4.224;2023-12-07T06:12:15;0.43;;;0.43;;
20711;SDS011;10517;50.742;4.224;2023-12-07T06:14:40;5.40;;;1.90;;
20711;SDS011;10517;50.742;4.224;2023-12-07T06:17:06;5.83;;;2.43;;
20711;SDS011;10517;50.742;4.224;2023-12-07T06:19:33;4.60;;;2.57;;
20711;SDS011;10517;50.742;4.224;2023-12-07T06:21:58;9.20;;;2.80;;
20711;SDS011;10517;50.742;4.224;2023-12-07T06:24:24;10.27;;;2.80;;
20711;SDS011;10517;50.742;4.224;2023-12-07T06:26:50;6.33;;;2.73;;
20711;SDS011;10517;50.742;4.224;2023-12-07T06:29:17;4.87;;;3.10;;
20711;SDS011;10517;50.742;4.224;2023-12-07T06:31:43;6.47;;;2.53;;
20711;SDS011;10517;50.742;4.224;2023-12-07T06:34:09;4.07;;;2.30;;
20711;SDS011;10517;50.742;4.224;2023-12-07T06:36:35;6.10;;;2.77;;
20711;SDS011;10517;50.742;4.224;2023-12-07T06:39:01;6.67;;;2.30;;
20711;SDS011;10517;50.742;4.224;2023-12-07T06:41:28;4.83;;;2.43;;
20711;SDS011;10517;50.742;4.224;2023-12-07T06:43:53;3.00;;;1.80;;
20711;SDS011;10517;50.742;4.224;2023-12-07T06:46:19;6.13;;;2.93;;
20711;SDS011;10517;50.742;4.224;2023-12-07T06:48:45;4.07;;;2.50;;
20711;SDS011;10517;50.742;4.224;2023-12-07T06:51:11;3.00;;;2.43;;
20711;SDS011;10517;50.742;4.224;2023-12-07T06:53:39;5.50;;;2.23;;
20711;SDS011;10517;50.742;4.224;2023-12-07T06:56:06;4.30;;;2.70;;
20711;SDS011;10517;50.742;4.224;2023-12-07T06:58:32;7.43;;;2.57;;
20711;SDS011;10517;50.742;4.224;2023-12-07T07:00:57;2.30;;;1.83;;
20711;SDS011;10517;50.742;4.224;2023-12-07T07:03:23;3.17;;;1.73;;
20711;SDS011;10517;50.742;4.224;2023-12-07T07:05:49;3.30;;;2.23;;
20711;SDS011;10517;50.742;4.224;2023-12-07T07:08:15;5.13;;;2.97;;
20711;SDS011;10517;50.742;4.224;2023-12-07T07:10:40;5.30;;;2.13;;
20711;SDS011;10517;50.742;4.224;2023-12-07T07:13:06;3.17;;;1.60;;
20711;SDS011;10517;50.742;4.224;2023-12-07T07:15:32;3.47;;;1.83;;
20711;SDS011;10517;50.742;4.224;2023-12-07T07:17:58;11.00;;;1.77;;
20711;SDS011;10517;50.742;4.224;2023-12-07T07:20:24;7.47;;;1.77;;
20711;SDS011;10517;50.742;4.224;2023-12-07T07:22:50;3.37;;;1.73;;
20711;SDS011;10517;50.742;4.224;2023-12-07T07:25:16;2.93;;;2.03;;
20711;SDS011;10517;50.742;4.224;2023-12-07T07:27:45;4.73;;;2.50;;
20711;SDS011;10517;50.742;4.224;2023-12-07T07:30:11;7.33;;;2.27;;
20711;SDS011;10517;50.742;4.224;2023-12-07T07:32:37;7.03;;;2.80;;
20711;SDS011;10517;50.742;4.224;2023-12-07T07:35:03;9.03;;;2.90;;
20711;SDS011;10517;50.742;4.224;2023-12-07T07:37:29;4.50;;;2.07;;
20711;SDS011;10517;50.742;4.224;2023-12-07T07:39:54;2.70;;;1.33;;
20711;SDS011;10517;50.742;4.224;2023-12-07T07:42:20;3.83;;;2.43;;
20711;SDS011;10517;50.742;4.224;2023-12-07T07:44:45;4.40;;;1.73;;
20711;SDS011;10517;50.742;4.224;2023-12-07T07:47:11;3.47;;;1.33;;
20711;SDS011;10517;50.742;4.224;2023-12-07T07:49:37;3.73;;;1.63;;
20711;SDS011;10517;50.742;4.224;2023-12-07T07:52:02;4.33;;;2.23;;
20711;SDS011;10517;50.742;4.224;2023-12-07T07:54:30;4.43;;;2.50;;
20711;SDS011;10517;50.742;4.224;2023-12-07T07:56:55;4.20;;;2.43;;
20711;SDS011;10517;50.742;4.224;2023-12-07T07:59:21;5.87;;;1.67;;
20711;SDS011;10517;50.742;4.224;2023-12-07T08:01:47;5.63;;;1.90;;
20711;SDS011;10517;50.742;4.224;2023-12-07T08:04:13;8.30;;;2.23;;
20711;SDS011;10517;50.742;4.224;2023-12-07T08:06:40;2.40;;;1.13;;
20711;SDS011;10517;50.742;4.224;2023-12-07T08:09:07;5.73;;;1.20;;
20711;SDS011;10517;50.742;4.224;2023-12-07T08:11:34;3.23;;;1.87;;
20711;SDS011;10517;50.742;4.224;2023-12-07T08:14:00;8.30;;;2.67;;
20711;SDS011;10517;50.742;4.224;2023-12-07T08:16:25;7.23;;;2.03;;
20711;SDS011;10517;50.742;4.224;2023-12-07T08:18:52;5.33;;;2.97;;
20711;SDS011;10517;50.742;4.224;2023-12-07T08:21:21;6.07;;;2.53;;
20711;SDS011;10517;50.742;4.224;2023-12-07T08:23:47;5.93;;;2.53;;
20711;SDS011;10517;50.742;4.224;2023-12-07T08:26:14;5.47;;;1.97;;
20711;SDS011;10517;50.742;4.224;2023-12-07T08:28:40;3.17;;;1.93;;
20711;SDS011;10517;50.742;4.224;2023-12-07T08:31:06;3.67;;;2.20;;
20711;SDS011;10517;50.742;4.224;2023-12-07T08:33:32;3.40;;;1.87;;
20711;SDS011;10517;50.742;4.224;2023-12-07T08:35:59;5.63;;;2.80;;
20711;SDS011;10517;50.742;4.224;2023-12-07T08:38:25;14.53;;;2.63;;
20711;SDS011;10517;50.742;4.224;2023-12-07T08:40:52;4.50;;;1.90;;
20711;SDS011;10517;50.742;4.224;2023-12-07T08:43:20;7.97;;;2.57;;
20711;SDS011;10517;50.742;4.224;2023-12-07T08:45:48;5.87;;;3.00;;
20711;SDS011;10517;50.742;4.224;2023-12-07T08:48:14;7.43;;;3.33;;
20711;SDS011;10517;50.742;4.224;2023-12-07T08:50:40;7.03;;;2.87;;
20711;SDS011;10517;50.742;4.224;2023-12-07T08:53:06;7.53;;;2.63;;
20711;SDS011;10517;50.742;4.224;2023-12-07T08:55:31;5.17;;;2.60;;
20711;SDS011;10517;50.742;4.224;2023-12-07T08:57:57;4.13;;;2.27;;
20711;SDS011;10517;50.742;4.224;2023-12-07T09:00:24;6.47;;;2.67;;
20711;SDS011;10517;50.742;4.224;2023-12-07T09:02:50;8.43;;;2.53;;
20711;SDS011;10517;50.742;4.224;2023-12-07T09:05:17;8.23;;;2.87;;
20711;SDS011;10517;50.742;4.224;2023-12-07T09:07:43;4.97;;;3.90;;
20711;SDS011;10517;50.742;4.224;2023-12-07T09:10:09;8.53;;;2.97;;
20711;SDS011;10517;50.742;4.224;2023-12-07T09:12:35;4.93;;;2.77;;
20711;SDS011;10517;50.742;4.224;2023-12-07T09:15:02;9.30;;;3.07;;
20711;SDS011;10517;50.742;4.224;2023-12-07T09:17:28;8.10;;;2.40;;
20711;SDS011;10517;50.742;4.224;2023-12-07T09:19:54;3.87;;;2.20;;
20711;SDS011;10517;50.742;4.224;2023-12-07T09:22:20;7.87;;;3.17;;
20711;SDS011;10517;50.742;4.224;2023-12-07T09:24:46;2.80;;;1.67;;
20711;SDS011;10517;50.742;4.224;2023-12-07T09:27:15;6.47;;;2.23;;
20711;SDS011;10517;50.742;4.224;2023-12-07T09:29:40;5.43;;;2.30;;
20711;SDS011;10517;50.742;4.224;2023-12-07T09:32:07;4.13;;;2.83;;
20711;SDS011;10517;50.742;4.224;2023-12-07T09:34:32;3.83;;;2.50;;
20711;SDS011;10517;50.742;4.224;2023-12-07T09:37:05;6.93;;;2.40;;
20711;SDS011;10517;50.742;4.224;2023-12-07T09:39:34;9.87;;;2.77;;
20711;SDS011;10517;50.742;4.224;2023-12-07T09:42:00;3.47;;;2.03;;
20711;SDS011;10517;50.742;4.224;2023-12-07T09:44:26;5.93;;;2.63;;
20711;SDS011;10517;50.742;4.224;2023-12-07T09:46:52;6.10;;;2.67;;
20711;SDS011;10517;50.742;4.224;2023-12-07T09:49:18;7.33;;;2.00;;
20711;SDS011;10517;50.742;4.224;2023-12-07T09:51:44;4.77;;;2.43;;
20711;SDS011;10517;50.742;4.224;2023-12-07T09:54:11;9.27;;;2.37;;
20711;SDS011;10517;50.742;4.224;2023-12-07T09:56:37;2.43;;;1.43;;
20711;SDS011;10517;50.742;4.224;2023-12-07T09:59:03;6.70;;;2.60;;
20711;SDS011;10517;50.742;4.224;2023-12-07T10:01:29;4.70;;;2.37;;
20711;SDS011;10517;50.742;4.224;2023-12-07T10:04:14;5.03;;;2.30;;
20711;SDS011;10517;50.742;4.224;2023-12-07T10:06:45;3.90;;;2.60;;
20711;SDS011;10517;50.742;4.224;2023-12-07T10:09:11;4.10;;;1.73;;
20711;SDS011;10517;50.742;4.224;2023-12-07T10:11:37;5.73;;;1.70;;
20711;SDS011;10517;50.742;4.224;2023-12-07T10:14:04;6.30;;;2.07;;
20711;SDS011;10517;50.742;4.224;2023-12-07T10:16:34;8.30;;;1.97;;
20711;SDS011;10517;50.742;4.224;2023-12-07T10:19:13;2.20;;;1.50;;
20711;SDS011;10517;50.742;4.224;2023-12-07T10:21:39;2.90;;;1.73;;
20711;SDS011;10517;50.742;4.224;2023-12-07T10:24:05;2.00;;;1.23;;
20711;SDS011;10517;50.742;4.224;2023-12-07T10:26:31;2.93;;;2.20;;
20711;SDS011;10517;50.742;4.224;2023-12-07T10:28:57;4.33;;;2.40;;
20711;SDS011;10517;50.742;4.224;2023-12-07T10:31:25;6.30;;;1.90;;
20711;SDS011;10517;50.742;4.224;2023-12-07T10:33:51;2.77;;;1.33;;
20711;SDS011;10517;50.742;4.224;2023-12-07T10:36:17;3.53;;;2.00;;
20711;SDS011;10517;50.742;4.224;2023-12-07T10:38:42;8.10;;;2.57;;
20711;SDS011;10517;50.742;4.224;2023-12-07T10:41:10;7.50;;;2.00;;
20711;SDS011;10517;50.742;4.224;2023-12-07T10:43:37;4.53;;;2.80;;
20711;SDS011;10517;50.742;4.224;2023-12-07T10:46:07;4.20;;;2.00;;
20711;SDS011;10517;50.742;4.224;2023-12-07T10:48:34;5.53;;;2.20;;
20711;SDS011;10517;50.742;4.224;2023-12-07T10:51:02;2.83;;;1.40;;
20711;SDS011;10517;50.742;4.224;2023-12-07T10:53:34;4.63;;;1.60;;
20711;SDS011;10517;50.742;4.224;2023-12-07T10:56:05;4.40;;;2.27;;
20711;SDS011;10517;50.742;4.224;2023-12-07T10:58:41;2.87;;;1.83;;
20711;SDS011;10517;50.742;4.224;2023-12-07T11:01:08;4.30;;;2.10;;
20711;SDS011;10517;50.742;4.224;2023-12-07T11:03:35;3.30;;;1.80;;
20711;SDS011;10517;50.742;4.224;2023-12-07T11:06:02;2.23;;;1.57;;
20711;SDS011;10517;50.742;4.224;2023-12-07T11:08:42;5.47;;;2.03;;
20711;SDS011;10517;50.742;4.224;2023-12-07T11:14:05;3.80;;;1.63;;
20711;SDS011;10517;50.742;4.224;2023-12-07T11:16:37;4.10;;;1.40;;
20711;SDS011;10517;50.742;4.224;2023-12-07T11:19:07;4.43;;;2.07;;
20711;SDS011;10517;50.742;4.224;2023-12-07T11:21:55;3.80;;;1.60;;
20711;SDS011;10517;50.742;4.224;2023-12-07T11:24:22;5.03;;;2.57;;
20711;SDS011;10517;50.742;4.224;2023-12-07T11:26:51;2.50;;;1.37;;
20711;SDS011;10517;50.742;4.224;2023-12-07T11:29:20;3.20;;;1.43;;
20711;SDS011;10517;50.742;4.224;2023-12-07T11:31:48;3.80;;;1.70;;
20711;SDS011;10517;50.742;4.224;2023-12-07T11:34:33;5.00;;;1.67;;
20711;SDS011;10517;50.742;4.224;2023-12-07T11:37:06;2.93;;;1.80;;
20711;SDS011;10517;50.742;4.224;2023-12-07T11:39:36;2.00;;;1.30;;
20711;SDS011;10517;50.742;4.224;2023-12-07T11:42:17;3.57;;;1.40;;
20711;SDS011;10517;50.742;4.224;2023-12-07T11:44:44;2.63;;;1.27;;
20711;SDS011;10517;50.742;4.224;2023-12-07T11:47:17;3.13;;;1.40;;
20711;SDS011;10517;50.742;4.224;2023-12-07T11:49:44;2.97;;;1.20;;
20711;SDS011;10517;50.742;4.224;2023-12-07T11:52:17;2.53;;;1.73;;
20711;SDS011;10517;50.742;4.224;2023-12-07T11:54:45;2.57;;;1.70;;
20711;SDS011;10517;50.742;4.224;2023-12-07T11:57:12;1.53;;;1.00;;
20711;SDS011;10517;50.742;4.224;2023-12-07T11:59:41;4.23;;;1.10;;
20711;SDS011;10517;50.742;4.224;2023-12-07T12:02:10;4.70;;;1.90;;
20711;SDS011;10517;50.742;4.224;2023-12-07T12:04:36;5.83;;;1.40;;
20711;SDS011;10517;50.742;4.224;2023-12-07T12:07:03;3.17;;;1.17;;
20711;SDS011;10517;50.742;4.224;2023-12-07T12:09:29;3.07;;;1.73;;
20711;SDS011;10517;50.742;4.224;2023-12-07T12:11:54;3.40;;;1.80;;
20711;SDS011;10517;50.742;4.224;2023-12-07T12:14:25;7.33;;;1.70;;
20711;SDS011;10517;50.742;4.224;2023-12-07T12:16:52;6.57;;;1.60;;
20711;SDS011;10517;50.742;4.224;2023-12-07T12:19:18;4.43;;;1.90;;
20711;SDS011;10517;50.742;4.224;2023-12-07T12:21:44;3.67;;;1.80;;
20711;SDS011;10517;50.742;4.224;2023-12-07T12:24:11;3.53;;;1.43;;
20711;SDS011;10517;50.742;4.224;2023-12-07T12:26:39;2.13;;;1.10;;
20711;SDS011;10517;50.742;4.224;2023-12-07T12:29:06;5.80;;;1.53;;
20711;SDS011;10517;50.742;4.224;2023-12-07T12:31:33;1.87;;;0.83;;
20711;SDS011;10517;50.742;4.224;2023-12-07T12:34:05;1.73;;;1.13;;
20711;SDS011;10517;50.742;4.224;2023-12-07T12:36:32;3.37;;;1.60;;
20711;SDS011;10517;50.742;4.224;2023-12-07T12:38:58;2.57;;;1.13;;
20711;SDS011;10517;50.742;4.224;2023-12-07T12:41:24;1.90;;;1.17;;
20711;SDS011;10517;50.742;4.224;2023-12-07T12:43:51;1.80;;;0.93;;
20711;SDS011;10517;50.742;4.224;2023-12-07T12:46:17;3.90;;;1.27;;
20711;SDS011;10517;50.742;4.224;2023-12-07T12:48:56;2.03;;;1.33;;
20711;SDS011;10517;50.742;4.224;2023-12-07T12:51:25;5.30;;;1.90;;
20711;SDS011;10517;50.742;4.224;2023-12-07T12:53:52;1.47;;;1.20;;
20711;SDS011;10517;50.742;4.224;2023-12-07T12:56:19;1.40;;;0.60;;
20711;SDS011;10517;50.742;4.224;2023-12-07T12:58:46;1.97;;;1.67;;
20711;SDS011;10517;50.742;4.224;2023-12-07T13:01:12;1.20;;;1.00;;
20711;SDS011;10517;50.742;4.224;2023-12-07T13:03:38;2.50;;;1.20;;
20711;SDS011;10517;50.742;4.224;2023-12-07T13:06:04;7.17;;;1.50;;
20711;SDS011;10517;50.742;4.224;2023-12-07T13:08:30;4.27;;;2.00;;
20711;SDS011;10517;50.742;4.224;2023-12-07T13:10:58;3.47;;;1.07;;
20711;SDS011;10517;50.742;4.224;2023-12-07T13:13:23;4.10;;;0.87;;
20711;SDS011;10517;50.742;4.224;2023-12-07T13:15:50;2.37;;;1.33;;
20711;SDS011;10517;50.742;4.224;2023-12-07T13:18:15;5.60;;;1.30;;
20711;SDS011;10517;50.742;4.224;2023-12-07T13:20:41;3.93;;;1.63;;
20711;SDS011;10517;50.742;4.224;2023-12-07T13:23:06;2.07;;;0.83;;
20711;SDS011;10517;50.742;4.224;2023-12-07T13:25:32;2.43;;;1.23;;
20711;SDS011;10517;50.742;4.224;2023-12-07T13:27:58;1.20;;;0.90;;
20711;SDS011;10517;50.742;4.224;2023-12-07T13:30:23;4.23;;;1.77;;
20711;SDS011;10517;50.742;4.224;2023-12-07T13:32:50;3.40;;;1.40;;
20711;SDS011;10517;50.742;4.224;2023-12-07T13:35:15;3.37;;;0.83;;
20711;SDS011;10517;50.742;4.224;2023-12-07T13:37:41;1.03;;;0.70;;
20711;SDS011;10517;50.742;4.224;2023-12-07T13:40:07;2.17;;;1.20;;
20711;SDS011;10517;50.742;4.224;2023-12-07T13:42:35;1.40;;;0.70;;
20711;SDS011;10517;50.742;4.224;2023-12-07T13:45:02;2.27;;;0.97;;
20711;SDS011;10517;50.742;4.224;2023-12-07T13:47:28;3.70;;;1.53;;
20711;SDS011;10517;50.742;4.224;2023-12-07T13:50:00;2.10;;;0.73;;
20711;SDS011;10517;50.742;4.224;2023-12-07T13:52:28;4.20;;;1.40;;
20711;SDS011;10517;50.742;4.224;2023-12-07T13:54:54;0.73;;;0.73;;
20711;SDS011;10517;50.742;4.224;2023-12-07T13:57:20;2.80;;;1.10;;
20711;SDS011;10517;50.742;4.224;2023-12-07T13:59:46;5.50;;;1.20;;
20711;SDS011;10517;50.742;4.224;2023-12-07T14:02:12;5.33;;;2.20;;
20711;SDS011;10517;50.742;4.224;2023-12-07T14:04:38;2.13;;;1.13;;
20711;SDS011;10517;50.742;4.224;2023-12-07T14:07:07;2.90;;;1.17;;
20711;SDS011;10517;50.742;4.224;2023-12-07T14:09:37;1.73;;;1.17;;
20711;SDS011;10517;50.742;4.224;2023-12-07T14:12:07;1.73;;;1.13;;
20711;SDS011;10517;50.742;4.224;2023-12-07T14:14:34;8.93;;;1.83;;
20711;SDS011;10517;50.742;4.224;2023-12-07T14:17:00;1.40;;;1.23;;
20711;SDS011;10517;50.742;4.224;2023-12-07T14:19:25;1.80;;;1.33;;
20711;SDS011;10517;50.742;4.224;2023-12-07T14:21:51;2.70;;;1.57;;
20711;SDS011;10517;50.742;4.224;2023-12-07T14:24:18;1.53;;;0.87;;
20711;SDS011;10517;50.742;4.224;2023-12-07T14:26:44;2.03;;;1.33;;
20711;SDS011;10517;50.742;4.224;2023-12-07T14:29:10;0.90;;;0.57;;
20711;SDS011;10517;50.742;4.224;2023-12-07T14:31:40;1.70;;;0.93;;
20711;SDS011;10517;50.742;4.224;2023-12-07T14:34:06;3.60;;;1.23;;
20711;SDS011;10517;50.742;4.224;2023-12-07T14:36:32;2.27;;;0.93;;
20711;SDS011;10517;50.742;4.224;2023-12-07T14:38:57;3.60;;;1.40;;
20711;SDS011;10517;50.742;4.224;2023-12-07T14:41:23;6.63;;;1.90;;
20711;SDS011;10517;50.742;4.224;2023-12-07T14:43:48;1.30;;;0.83;;
20711;SDS011;10517;50.742;4.224;2023-12-07T14:46:14;6.57;;;1.33;;